createdAt,value
2019-05-21T19:20:36.798Z,4.50
2019-05-21T19:23:05.586Z,3.90
2019-05-21T19:25:34.262Z,3.87
2019-05-21T19:28:02.858Z,3.67
2019-05-21T19:30:31.677Z,4.13
2019-05-21T19:33:00.458Z,4.30
2019-05-21T19:35:29.036Z,3.60
2019-05-21T19:37:58.097Z,3.87
2019-05-21T19:40:26.844Z,3.80
2019-05-21T19:43:03.772Z,3.80
2019-05-21T19:45:32.389Z,3.47
2019-05-21T19:48:00.950Z,3.77
2019-05-21T19:50:29.669Z,4.10
2019-05-21T19:52:58.113Z,4.03
2019-05-21T19:55:27.508Z,4.30
2019-05-21T19:57:55.989Z,3.80
2019-05-21T20:00:26.229Z,3.83
2019-05-21T20:02:55.100Z,4.30
2019-05-21T20:05:23.753Z,4.90
2019-05-21T20:07:52.197Z,4.23
2019-05-21T20:10:21.290Z,4.10
2019-05-21T20:12:49.925Z,4.72
2019-05-21T20:15:18.570Z,4.60
2019-05-21T20:17:50.718Z,4.07
2019-05-21T20:20:20.082Z,4.10
2019-05-21T20:22:48.537Z,4.23
2019-05-21T20:25:17.135Z,3.60
2019-05-21T20:27:47.277Z,3.77
2019-05-21T20:30:20.327Z,4.00
2019-05-21T20:32:49.833Z,5.43
2019-05-21T20:35:20.505Z,4.53
2019-05-21T20:37:50.923Z,3.50
2019-05-21T20:40:20.414Z,4.07
2019-05-21T20:42:51.435Z,3.83
2019-05-21T20:45:20.977Z,4.17
2019-05-21T20:47:52.122Z,5.00
2019-05-21T20:50:22.950Z,4.77
2019-05-21T20:52:52.503Z,4.80
2019-05-21T20:55:21.424Z,6.23
2019-05-21T20:57:52.190Z,6.17
2019-05-21T21:00:29.405Z,5.37
2019-05-21T21:03:00.029Z,6.43
2019-05-21T21:05:28.642Z,5.60
2019-05-21T21:07:57.808Z,8.37
2019-05-21T21:10:26.430Z,6.83
2019-05-21T21:12:55.073Z,5.97
2019-05-21T21:15:23.486Z,5.57
2019-05-21T21:17:52.821Z,6.20
2019-05-21T21:20:21.572Z,7.13
2019-05-21T21:22:49.976Z,6.50
2019-05-21T21:25:24.269Z,6.73
2019-05-21T21:27:52.853Z,6.67
2019-05-21T21:30:21.354Z,6.70
2019-05-21T21:32:50.359Z,6.67
2019-05-21T21:35:19.277Z,7.73
2019-05-21T21:37:47.856Z,7.00
2019-05-21T21:40:18.159Z,7.70
2019-05-21T21:42:46.741Z,6.50
2019-05-21T21:45:15.618Z,7.20
2019-05-21T21:47:44.799Z,8.63
2019-05-21T21:50:13.942Z,8.23
2019-05-21T21:52:43.090Z,7.80
2019-05-21T21:55:13.414Z,7.20
2019-05-21T21:57:41.775Z,7.10
2019-05-21T22:00:56.751Z,7.77
2019-05-21T22:03:30.229Z,7.37
2019-05-21T22:06:02.123Z,6.80
2019-05-21T22:08:32.211Z,7.50
2019-05-21T22:11:01.284Z,7.03
2019-05-21T22:13:30.261Z,5.93
2019-05-21T22:15:59.072Z,6.70
2019-05-21T22:18:27.851Z,6.67
2019-05-21T22:20:57.217Z,6.50
2019-05-21T22:23:26.154Z,5.00
2019-05-21T22:25:59.303Z,5.37
2019-05-21T22:28:27.994Z,5.23
2019-05-21T22:30:56.613Z,4.93
2019-05-21T22:33:25.333Z,5.95
2019-05-21T22:35:53.930Z,5.30
2019-05-21T22:38:23.296Z,4.70
2019-05-21T22:40:51.592Z,4.80
2019-05-21T22:43:20.767Z,5.60
2019-05-21T22:45:49.860Z,5.53
2019-05-21T22:48:18.394Z,5.33
2019-05-21T22:50:46.927Z,5.20
2019-05-21T22:53:15.386Z,6.10
2019-05-21T22:55:43.695Z,5.80
2019-05-21T22:58:12.075Z,4.53
2019-05-21T23:00:42.390Z,5.90
2019-05-21T23:03:10.901Z,5.30
2019-05-21T23:05:39.402Z,5.47
2019-05-21T23:08:08.304Z,5.10
2019-05-21T23:10:36.787Z,5.10
2019-05-21T23:13:05.304Z,5.87
2019-05-21T23:15:33.902Z,5.57
2019-05-21T23:18:19.438Z,4.93
2019-05-21T23:21:00.209Z,5.30
2019-05-21T23:23:34.501Z,5.57
2019-05-21T23:26:04.905Z,6.90
2019-05-21T23:28:34.539Z,6.37
2019-05-21T23:31:05.072Z,5.30
2019-05-21T23:33:34.095Z,5.77
2019-05-21T23:36:03.270Z,5.90
2019-05-21T23:38:31.995Z,6.03
2019-05-21T23:41:03.062Z,6.03
2019-05-21T23:43:32.121Z,6.00
2019-05-21T23:46:00.793Z,6.55
2019-05-21T23:48:30.630Z,6.43
2019-05-21T23:50:59.482Z,6.00
2019-05-21T23:53:27.993Z,5.57
2019-05-21T23:55:56.573Z,5.37
2019-05-21T23:58:25.266Z,6.03
